createdAt,value
2018-09-03T00:01:38.394Z,16.08
2018-09-03T00:04:07.330Z,16.10
2018-09-03T00:06:35.976Z,16.12
2018-09-03T00:09:06.262Z,16.17
2018-09-03T00:11:35.014Z,16.22
2018-09-03T00:14:03.973Z,16.18
2018-09-03T00:16:32.811Z,16.18
2018-09-03T00:19:01.658Z,16.15
2018-09-03T00:21:30.703Z,16.19
2018-09-03T00:23:59.405Z,16.19
2018-09-03T00:26:28.146Z,16.22
2018-09-03T00:28:56.863Z,16.22
2018-09-03T00:31:30.871Z,16.31
2018-09-03T00:34:04.794Z,16.29
2018-09-03T00:36:38.835Z,16.28
2018-09-03T00:39:13.751Z,16.24
2018-09-03T00:41:47.795Z,16.22
2018-09-03T00:44:21.945Z,16.19
2018-09-03T00:46:59.338Z,16.21
2018-09-03T00:49:28.331Z,16.18
2018-09-03T00:51:56.973Z,16.22
2018-09-03T00:54:25.630Z,16.24
2018-09-03T00:56:54.408Z,16.25
2018-09-03T00:59:23.186Z,16.25
2018-09-03T01:01:51.926Z,16.27
2018-09-03T01:04:20.831Z,16.30
2018-09-03T01:06:49.529Z,16.29
2018-09-03T01:09:18.546Z,16.31
2018-09-03T01:11:47.286Z,16.39
2018-09-03T01:14:16.015Z,16.35
2018-09-03T01:16:44.683Z,16.32
2018-09-03T01:19:13.371Z,16.36
2018-09-03T01:21:42.174Z,16.39
2018-09-03T01:24:10.839Z,16.45
2018-09-03T01:26:39.751Z,16.43
2018-09-03T01:29:08.410Z,16.36
2018-09-03T01:31:37.338Z,16.46
2018-09-03T01:34:06.103Z,16.57
2018-09-03T01:36:34.750Z,16.44
2018-09-03T01:39:03.613Z,16.35
2018-09-03T01:41:32.282Z,16.35
2018-09-03T01:44:01.080Z,16.32
2018-09-03T01:46:29.741Z,16.36
2018-09-03T01:49:01.473Z,16.50
2018-09-03T01:51:30.418Z,16.50
2018-09-03T01:53:59.152Z,16.55
2018-09-03T01:56:27.787Z,16.57
2018-09-03T01:58:56.666Z,16.50
2018-09-03T02:01:25.317Z,16.48
2018-09-03T02:03:54.110Z,16.43
2018-09-03T02:06:22.794Z,16.51
2018-09-03T02:08:51.490Z,16.47
2018-09-03T02:11:20.243Z,16.43
2018-09-03T02:13:49.021Z,16.30
2018-09-03T02:16:17.709Z,16.22
2018-09-03T02:18:46.525Z,16.23
2018-09-03T02:21:15.288Z,16.21
2018-09-03T02:23:44.150Z,16.22
2018-09-03T02:26:12.864Z,16.27
2018-09-03T02:28:41.605Z,16.29
2018-09-03T02:31:10.301Z,16.20
2018-09-03T02:33:39.613Z,16.24
2018-09-03T02:36:08.318Z,16.17
2018-09-03T02:38:37.046Z,16.24
2018-09-03T02:41:06.061Z,16.30
2018-09-03T02:43:35.171Z,16.39
2018-09-03T02:46:03.827Z,16.27
2018-09-03T02:48:32.489Z,16.32
2018-09-03T02:51:01.230Z,16.35
2018-09-03T02:53:30.090Z,16.20
2018-09-03T02:55:58.787Z,16.13
2018-09-03T02:58:27.509Z,16.23
2018-09-03T03:00:56.274Z,16.35
2018-09-03T03:03:24.981Z,16.33
2018-09-03T03:05:53.980Z,16.42
2018-09-03T03:08:22.735Z,16.28
2018-09-03T03:10:51.526Z,16.33
2018-09-03T03:13:20.311Z,16.24
2018-09-03T03:15:48.945Z,16.14
2018-09-03T03:18:17.785Z,16.06
2018-09-03T03:20:46.458Z,16.08
2018-09-03T03:23:15.166Z,15.95
2018-09-03T03:25:43.875Z,16.03
2018-09-03T03:28:12.513Z,16.00
2018-09-03T03:30:41.201Z,16.13
2018-09-03T03:33:09.936Z,16.13
2018-09-03T03:35:38.779Z,16.16
2018-09-03T03:38:07.469Z,16.11
2018-09-03T03:40:36.101Z,16.13
2018-09-03T03:43:04.853Z,15.99
2018-09-03T03:45:33.674Z,16.05
2018-09-03T03:48:02.355Z,16.10
2018-09-03T03:50:31.197Z,16.23
2018-09-03T03:52:59.913Z,16.16
2018-09-03T03:55:28.665Z,16.04
2018-09-03T03:57:57.533Z,16.04
2018-09-03T04:00:26.266Z,16.04
2018-09-03T04:02:55.099Z,16.03
2018-09-03T04:05:23.752Z,16.10
2018-09-03T04:07:52.469Z,16.06
2018-09-03T04:10:21.458Z,16.29
2018-09-03T04:12:54.129Z,16.21
2018-09-03T04:15:23.891Z,16.23
2018-09-03T04:17:52.601Z,16.23
2018-09-03T04:20:21.274Z,16.30
2018-09-03T04:22:50.051Z,16.21
2018-09-03T04:25:18.800Z,16.19
2018-09-03T04:27:47.542Z,16.06
2018-09-03T04:30:16.370Z,16.09
2018-09-03T04:32:45.034Z,16.06
2018-09-03T04:35:13.995Z,16.00
2018-09-03T04:37:42.756Z,15.94
2018-09-03T04:40:11.545Z,15.91
2018-09-03T04:42:40.254Z,15.99
2018-09-03T04:45:09.030Z,16.03
2018-09-03T04:47:37.902Z,16.07
2018-09-03T04:50:06.727Z,15.94
2018-09-03T04:52:35.433Z,15.97
2018-09-03T04:55:04.315Z,15.94
2018-09-03T04:57:33.014Z,15.94
2018-09-03T05:00:01.870Z,15.99
2018-09-03T05:02:30.602Z,15.91
2018-09-03T05:04:59.291Z,15.84
2018-09-03T05:07:27.977Z,15.99
2018-09-03T05:09:56.673Z,16.02
2018-09-03T05:12:25.587Z,16.15
2018-09-03T05:14:54.227Z,16.07
2018-09-03T05:17:23.038Z,15.99
2018-09-03T05:19:51.697Z,16.03
2018-09-03T05:22:20.469Z,16.07
2018-09-03T05:24:49.639Z,16.06
2018-09-03T05:27:18.565Z,16.17
2018-09-03T05:29:47.550Z,16.18
2018-09-03T05:32:16.237Z,16.15
2018-09-03T05:34:45.274Z,16.33
2018-09-03T05:37:14.054Z,16.47
2018-09-03T05:39:42.968Z,16.49
2018-09-03T05:42:11.625Z,16.62
2018-09-03T05:44:40.571Z,16.63
2018-09-03T05:47:09.313Z,16.55
2018-09-03T05:49:37.961Z,16.53
2018-09-03T05:52:06.737Z,16.68
2018-09-03T05:54:35.494Z,16.61
2018-09-03T05:57:04.421Z,16.59
2018-09-03T05:59:33.102Z,16.46
2018-09-03T06:02:01.857Z,16.50
2018-09-03T06:04:30.805Z,16.53
2018-09-03T06:06:59.504Z,16.52
2018-09-03T06:09:28.972Z,16.53
2018-09-03T06:11:57.817Z,16.76
2018-09-03T06:14:26.545Z,16.85
2018-09-03T06:16:55.331Z,16.77
2018-09-03T06:19:24.089Z,16.83
2018-09-03T06:21:52.754Z,16.92
2018-09-03T06:24:21.572Z,16.71
2018-09-03T06:26:50.222Z,16.71
2018-09-03T06:29:19.138Z,16.76
2018-09-03T06:31:47.846Z,16.82
2018-09-03T06:34:16.537Z,16.82
2018-09-03T06:36:45.205Z,16.83
2018-09-03T06:39:13.928Z,16.90
2018-09-03T06:41:42.597Z,17.02
2018-09-03T06:44:11.225Z,17.02
2018-09-03T06:46:39.980Z,17.20
2018-09-03T06:49:08.751Z,17.15
2018-09-03T06:51:37.383Z,17.18
2018-09-03T06:54:06.253Z,17.22
2018-09-03T06:56:34.996Z,17.27
2018-09-03T06:59:03.730Z,17.29
2018-09-03T07:01:32.579Z,17.33
2018-09-03T07:04:01.319Z,17.29
2018-09-03T07:06:30.078Z,17.30
2018-09-03T07:08:59.383Z,17.37
2018-09-03T07:11:28.274Z,17.42
2018-09-03T07:13:57.025Z,17.33
2018-09-03T07:16:25.756Z,17.26
2018-09-03T07:18:54.525Z,17.33
2018-09-03T07:21:23.246Z,17.32
2018-09-03T07:23:52.213Z,17.33
2018-09-03T07:26:21.421Z,17.36
2018-09-03T07:28:50.326Z,17.51
2018-09-03T07:31:19.459Z,17.56
2018-09-03T07:33:48.196Z,17.64
2018-09-03T07:36:16.969Z,17.58
2018-09-03T07:38:45.829Z,17.15
2018-09-03T07:41:14.532Z,17.43
2018-09-03T07:43:43.247Z,17.55
2018-09-03T07:46:11.890Z,17.59
2018-09-03T07:48:40.933Z,17.66
2018-09-03T07:51:09.727Z,17.63
2018-09-03T07:53:38.369Z,17.76
2018-09-03T07:56:07.174Z,17.82
2018-09-03T07:58:35.845Z,17.70
2018-09-03T08:01:04.940Z,17.80
2018-09-03T08:03:33.522Z,17.60
2018-09-03T08:06:02.503Z,17.61
2018-09-03T08:08:31.423Z,17.69
2018-09-03T08:11:00.086Z,17.91
2018-09-03T08:13:34.445Z,17.85
2018-09-03T08:16:03.183Z,17.89
2018-09-03T08:18:31.913Z,17.88
2018-09-03T08:21:00.993Z,17.63
2018-09-03T08:23:29.773Z,17.73
2018-09-03T08:25:58.797Z,17.80
2018-09-03T08:28:27.593Z,17.80
2018-09-03T08:30:56.416Z,17.71
2018-09-03T08:33:25.297Z,17.73
2018-09-03T08:35:54.130Z,17.88
2018-09-03T08:38:23.169Z,17.98
2018-09-03T08:40:51.841Z,18.09
2018-09-03T08:43:20.611Z,18.21
2018-09-03T08:45:49.349Z,18.31
2018-09-03T08:48:18.077Z,18.51
2018-09-03T08:50:46.789Z,18.64
2018-09-03T08:53:15.567Z,18.51
2018-09-03T08:55:44.218Z,18.56
2018-09-03T08:58:13.074Z,18.60
2018-09-03T09:00:41.822Z,18.68
2018-09-03T09:03:15.603Z,18.67
2018-09-03T09:05:44.448Z,18.68
2018-09-03T09:08:13.100Z,18.70
2018-09-03T09:10:42.290Z,18.61
2018-09-03T09:13:11.239Z,18.65
2018-09-03T09:15:40.217Z,18.71
2018-09-03T09:18:11.789Z,18.75
2018-09-03T09:20:40.457Z,18.76
2018-09-03T09:23:09.290Z,18.59
2018-09-03T09:25:38.003Z,18.56
2018-09-03T09:28:06.835Z,18.46
2018-09-03T09:30:35.634Z,18.48
2018-09-03T09:33:04.607Z,18.43
2018-09-03T09:35:33.566Z,18.47
2018-09-03T09:38:02.330Z,18.54
2018-09-03T09:40:31.186Z,18.48
2018-09-03T09:43:00.015Z,18.41
2018-09-03T09:45:29.411Z,18.57
2018-09-03T09:47:58.238Z,18.60
2018-09-03T09:50:26.923Z,18.60
2018-09-03T09:52:55.714Z,18.69
2018-09-03T09:55:24.531Z,18.71
2018-09-03T09:57:53.314Z,18.81
2018-09-03T10:00:27.145Z,18.84
2018-09-03T10:02:56.123Z,18.76
2018-09-03T10:05:24.973Z,18.83
2018-09-03T10:07:53.645Z,18.93
2018-09-03T10:10:22.470Z,18.88
2018-09-03T10:12:51.279Z,18.86
2018-09-03T10:15:20.110Z,18.59
2018-09-03T10:17:48.918Z,18.65
2018-09-03T10:20:17.700Z,18.65
2018-09-03T10:22:46.401Z,18.61
2018-09-03T10:25:15.166Z,18.71
2018-09-03T10:27:44.104Z,19.01
2018-09-03T10:30:12.877Z,18.92
2018-09-03T10:32:41.725Z,18.96
2018-09-03T10:35:10.782Z,19.01
2018-09-03T10:37:39.626Z,19.23
2018-09-03T10:40:08.354Z,19.14
2018-09-03T10:42:37.122Z,19.16
2018-09-03T10:45:05.969Z,19.14
2018-09-03T10:47:34.919Z,19.16
2018-09-03T10:50:03.661Z,19.05
2018-09-03T10:52:32.626Z,19.12
2018-09-03T10:55:01.506Z,19.19
2018-09-03T10:57:30.146Z,19.05
2018-09-03T10:59:58.938Z,18.95
2018-09-03T11:02:27.733Z,18.99
2018-09-03T11:04:56.619Z,19.04
2018-09-03T11:07:25.867Z,19.04
2018-09-03T11:09:54.637Z,19.02
2018-09-03T11:12:23.744Z,19.05
2018-09-03T11:14:52.498Z,18.99
2018-09-03T11:17:21.298Z,19.05
2018-09-03T11:20:07.351Z,19.08
2018-09-03T11:22:35.973Z,19.07
2018-09-03T11:25:05.189Z,19.26
2018-09-03T11:27:34.089Z,19.13
2018-09-03T11:30:03.014Z,19.04
2018-09-03T11:32:31.872Z,18.94
2018-09-03T11:35:00.628Z,18.99
2018-09-03T11:37:29.542Z,18.98
2018-09-03T11:39:58.309Z,18.84
2018-09-03T11:42:27.541Z,18.89
2018-09-03T11:44:56.310Z,18.88
2018-09-03T11:47:25.254Z,18.80
2018-09-03T11:49:54.069Z,18.99
2018-09-03T11:52:22.792Z,19.12
2018-09-03T11:54:51.491Z,19.11
2018-09-03T11:57:20.251Z,19.18
2018-09-03T11:59:49.041Z,19.33
2018-09-03T12:02:17.732Z,19.18
2018-09-03T12:04:48.233Z,19.22
2018-09-03T12:07:17.066Z,19.32
2018-09-03T12:09:45.716Z,19.54
2018-09-03T12:12:14.401Z,19.71
2018-09-03T12:14:45.463Z,19.62
2018-09-03T12:17:14.373Z,19.70
2018-09-03T12:19:43.258Z,19.77
2018-09-03T12:22:12.088Z,19.78
2018-09-03T12:24:40.819Z,19.85
2018-09-03T12:27:09.674Z,19.83
2018-09-03T12:29:38.459Z,19.85
2018-09-03T12:32:07.593Z,19.73
2018-09-03T12:34:36.295Z,19.92
2018-09-03T12:37:06.006Z,20.14
2018-09-03T12:39:35.152Z,20.13
2018-09-03T12:42:03.873Z,20.14
2018-09-03T12:44:32.689Z,20.21
2018-09-03T12:47:01.890Z,20.28
2018-09-03T12:49:30.611Z,20.19
2018-09-03T12:51:59.890Z,20.10
2018-09-03T12:54:28.962Z,20.17
2018-09-03T12:56:57.813Z,20.23
2018-09-03T12:59:26.478Z,20.33
2018-09-03T13:01:55.240Z,20.38
2018-09-03T13:04:24.144Z,20.66
2018-09-03T13:06:52.897Z,21.07
2018-09-03T13:09:21.906Z,21.03
2018-09-03T13:11:50.772Z,21.23
2018-09-03T13:14:19.578Z,21.26
2018-09-03T13:16:48.692Z,21.08
2018-09-03T13:19:17.520Z,20.95
2018-09-03T13:24:14.093Z,21.02
2018-09-03T13:26:43.003Z,20.96
2018-09-03T13:29:12.024Z,20.96
2018-09-03T13:31:40.925Z,20.77
2018-09-03T13:34:09.679Z,20.75
2018-09-03T13:36:38.367Z,20.42
2018-09-03T13:39:09.102Z,20.73
2018-09-03T13:44:05.794Z,21.10
2018-09-03T13:46:34.861Z,21.06
2018-09-03T13:49:03.639Z,21.09
2018-09-03T13:51:32.361Z,21.12
2018-09-03T13:54:01.361Z,21.06
2018-09-03T13:56:30.186Z,21.08
2018-09-03T13:58:58.957Z,21.25
2018-09-03T14:01:27.806Z,21.27
2018-09-03T14:03:56.466Z,21.34
2018-09-03T14:06:25.375Z,20.82
2018-09-03T14:08:54.059Z,21.20
2018-09-03T14:11:22.899Z,20.96
2018-09-03T14:13:51.598Z,21.33
2018-09-03T14:16:20.410Z,21.62
2018-09-03T14:18:49.259Z,21.78
2018-09-03T14:21:18.261Z,21.86
2018-09-03T14:23:46.992Z,21.92
2018-09-03T14:26:15.686Z,21.33
2018-09-03T14:28:44.562Z,21.32
2018-09-03T14:31:13.275Z,21.41
2018-09-03T14:33:42.036Z,21.10
2018-09-03T14:36:10.865Z,20.81
2018-09-03T14:38:39.673Z,21.12
2018-09-03T14:41:08.335Z,20.77
2018-09-03T14:43:37.073Z,20.70
2018-09-03T14:46:06.077Z,21.04
2018-09-03T14:48:34.850Z,21.48
2018-09-03T14:51:03.605Z,21.87
2018-09-03T14:53:32.446Z,22.21
2018-09-03T14:56:01.134Z,22.45
2018-09-03T14:58:29.995Z,22.45
2018-09-03T15:00:58.724Z,22.14
2018-09-03T15:03:27.387Z,21.95
2018-09-03T15:05:56.024Z,21.98
2018-09-03T15:08:25.047Z,22.20
2018-09-03T15:10:53.695Z,22.10
2018-09-03T15:13:22.356Z,21.80
2018-09-03T15:15:51.140Z,22.16
2018-09-03T15:18:19.905Z,21.72
2018-09-03T15:20:48.845Z,21.53
2018-09-03T15:23:17.493Z,21.86
2018-09-03T15:25:46.177Z,21.79
2018-09-03T15:28:14.903Z,21.81
2018-09-03T15:30:43.611Z,21.69
2018-09-03T15:33:12.362Z,21.88
2018-09-03T15:35:41.364Z,21.64
2018-09-03T15:38:10.122Z,21.64
2018-09-03T15:40:38.930Z,21.72
2018-09-03T15:43:07.599Z,21.72
2018-09-03T15:45:36.405Z,21.67
2018-09-03T15:48:05.260Z,21.59
2018-09-03T15:50:34.080Z,21.64
2018-09-03T15:53:03.002Z,21.40
2018-09-03T15:55:31.897Z,21.58
2018-09-03T15:58:00.739Z,21.82
2018-09-03T16:00:29.641Z,21.82
2018-09-03T16:02:58.483Z,21.89
2018-09-03T16:05:27.273Z,22.00
2018-09-03T16:07:55.986Z,22.02
2018-09-03T16:10:24.930Z,22.05
2018-09-03T16:12:53.594Z,21.99
2018-09-03T16:15:22.385Z,21.98
2018-09-03T16:17:51.252Z,21.97
2018-09-03T16:20:19.912Z,22.28
2018-09-03T16:22:48.878Z,22.43
2018-09-03T16:25:17.853Z,22.45
2018-09-03T16:27:46.698Z,22.14
2018-09-03T16:30:15.451Z,22.42
2018-09-03T16:32:44.096Z,22.41
2018-09-03T16:35:12.929Z,22.51
2018-09-03T16:37:41.741Z,22.48
2018-09-03T16:40:11.082Z,22.03
2018-09-03T16:42:39.951Z,21.98
2018-09-03T16:45:08.698Z,22.18
2018-09-03T16:47:37.570Z,22.15
2018-09-03T16:50:06.569Z,22.16
2018-09-03T16:52:35.348Z,22.22
2018-09-03T16:55:04.078Z,21.95
2018-09-03T16:57:32.773Z,21.85
2018-09-03T17:00:01.632Z,21.69
2018-09-03T17:02:30.463Z,21.51
2018-09-03T17:04:59.233Z,21.49
2018-09-03T17:07:28.053Z,21.33
2018-09-03T17:09:56.736Z,21.37
2018-09-03T17:12:25.978Z,21.28
2018-09-03T17:14:54.842Z,21.05
2018-09-03T17:17:24.192Z,20.85
2018-09-03T17:19:53.265Z,20.61
2018-09-03T17:22:21.913Z,20.44
2018-09-03T17:24:50.655Z,20.42
2018-09-03T17:27:19.505Z,20.22
2018-09-03T17:29:48.265Z,20.16
2018-09-03T17:32:17.006Z,20.05
2018-09-03T17:34:45.673Z,20.06
2018-09-03T17:37:14.692Z,20.10
2018-09-03T17:39:43.381Z,19.99
2018-09-03T17:42:12.134Z,20.02
2018-09-03T17:44:41.067Z,19.92
2018-09-03T17:47:09.794Z,19.96
2018-09-03T17:49:38.753Z,19.82
2018-09-03T17:52:07.516Z,19.57
2018-09-03T17:54:36.277Z,19.60
2018-09-03T17:57:05.112Z,19.64
2018-09-03T17:59:33.915Z,19.63
2018-09-03T18:02:03.035Z,19.64
2018-09-03T18:04:31.733Z,19.65
2018-09-03T18:07:00.435Z,19.75
2018-09-03T18:09:29.230Z,19.68
2018-09-03T18:11:58.007Z,19.65
2018-09-03T18:14:26.802Z,19.57
2018-09-03T18:16:55.482Z,19.55
2018-09-03T18:19:24.386Z,19.40
2018-09-03T18:21:53.374Z,19.35
2018-09-03T18:24:22.201Z,19.31
2018-09-03T18:26:51.096Z,19.10
2018-09-03T18:29:19.855Z,19.08
2018-09-03T18:31:48.679Z,19.09
2018-09-03T18:34:17.393Z,19.18
2018-09-03T18:36:46.090Z,19.17
2018-09-03T18:39:15.106Z,19.18
2018-09-03T18:41:43.801Z,19.21
2018-09-03T18:44:12.478Z,19.25
2018-09-03T18:46:41.607Z,19.29
2018-09-03T18:49:10.283Z,19.30
2018-09-03T18:51:39.062Z,19.30
2018-09-03T18:54:07.437Z,19.29
2018-09-03T18:56:36.104Z,19.25
2018-09-03T18:59:05.235Z,19.27
2018-09-03T19:01:34.007Z,19.30
2018-09-03T19:04:02.818Z,19.37
2018-09-03T19:06:31.689Z,19.33
2018-09-03T19:09:00.669Z,19.31
2018-09-03T19:11:29.745Z,19.23
2018-09-03T19:13:58.613Z,19.27
2018-09-03T19:16:27.354Z,19.19
2018-09-03T19:18:56.312Z,19.28
2018-09-03T19:21:25.009Z,19.23
2018-09-03T19:23:53.874Z,19.22
2018-09-03T19:26:22.822Z,19.16
2018-09-03T19:28:51.540Z,19.21
2018-09-03T19:31:20.215Z,19.16
2018-09-03T19:33:49.130Z,19.10
2018-09-03T19:36:17.949Z,19.13
2018-09-03T19:38:46.701Z,19.06
2018-09-03T19:41:15.489Z,18.99
2018-09-03T19:43:44.174Z,18.94
2018-09-03T19:46:12.831Z,18.90
2018-09-03T19:48:41.868Z,18.90
2018-09-03T19:51:10.588Z,18.98
2018-09-03T19:53:39.275Z,18.96
2018-09-03T19:56:08.009Z,18.96
2018-09-03T19:58:36.770Z,18.84
2018-09-03T20:01:05.991Z,18.82
2018-09-03T20:03:34.849Z,18.78
2018-09-03T20:06:03.733Z,18.76
2018-09-03T20:08:33.502Z,18.78
2018-09-03T20:11:02.369Z,18.74
2018-09-03T20:13:31.681Z,18.69
2018-09-03T20:16:00.432Z,18.54
2018-09-03T20:18:29.165Z,18.50
2018-09-03T20:20:58.137Z,18.51
2018-09-03T20:23:26.888Z,18.34
2018-09-03T20:25:55.924Z,18.47
2018-09-03T20:28:24.710Z,18.58
2018-09-03T20:30:53.363Z,18.39
2018-09-03T20:33:22.230Z,18.56
2018-09-03T20:35:51.158Z,18.55
2018-09-03T20:38:20.182Z,18.45
2018-09-03T20:40:48.977Z,18.29
2018-09-03T20:43:17.632Z,18.46
2018-09-03T20:45:46.366Z,18.52
2018-09-03T20:48:15.107Z,18.48
2018-09-03T20:50:43.924Z,18.41
2018-09-03T20:53:12.695Z,18.48
2018-09-03T20:55:41.473Z,18.42
2018-09-03T20:58:10.592Z,18.37
2018-09-03T21:00:39.342Z,18.40
2018-09-03T21:03:08.030Z,18.51
2018-09-03T21:05:36.792Z,18.52
2018-09-03T21:08:05.728Z,18.42
2018-09-03T21:10:34.529Z,18.32
2018-09-03T21:13:03.598Z,18.40
2018-09-03T21:15:32.257Z,18.36
2018-09-03T21:18:00.976Z,18.33
2018-09-03T21:20:29.754Z,18.32
2018-09-03T21:22:58.450Z,18.33
2018-09-03T21:25:27.162Z,18.20
2018-09-03T21:27:55.829Z,18.16
2018-09-03T21:30:24.842Z,18.09
2018-09-03T21:32:53.494Z,18.17
2018-09-03T21:35:22.366Z,18.30
2018-09-03T21:37:51.178Z,18.24
2018-09-03T21:40:20.161Z,18.27
2018-09-03T21:42:49.094Z,18.30
2018-09-03T21:45:17.863Z,18.26
2018-09-03T21:47:46.537Z,18.25
2018-09-03T21:50:15.195Z,18.16
2018-09-03T21:52:43.941Z,18.09
2018-09-03T21:55:12.937Z,18.06
2018-09-03T21:57:41.830Z,18.11
2018-09-03T22:00:11.204Z,18.08
2018-09-03T22:02:40.032Z,18.11
2018-09-03T22:05:08.849Z,18.22
2018-09-03T22:07:37.547Z,18.21
2018-09-03T22:10:06.362Z,18.19
2018-09-03T22:12:35.181Z,18.15
2018-09-03T22:15:03.994Z,18.23
2018-09-03T22:17:32.730Z,18.18
2018-09-03T22:20:01.750Z,18.18
2018-09-03T22:22:30.514Z,18.04
2018-09-03T22:24:59.389Z,18.06
2018-09-03T22:27:28.415Z,18.17
2018-09-03T22:29:57.298Z,18.21
2018-09-03T22:32:26.410Z,18.15
2018-09-03T22:34:55.160Z,18.21
2018-09-03T22:37:23.838Z,18.18
2018-09-03T22:39:52.575Z,18.19
2018-09-03T22:42:24.978Z,18.14
2018-09-03T22:44:54.146Z,18.08
2018-09-03T22:47:23.035Z,18.12
2018-09-03T22:49:51.817Z,18.10
2018-09-03T22:52:20.844Z,18.06
2018-09-03T22:54:49.731Z,18.10
2018-09-03T22:57:18.879Z,18.02
2018-09-03T22:59:47.784Z,18.10
2018-09-03T23:02:16.479Z,18.14
2018-09-03T23:04:45.283Z,18.08
2018-09-03T23:07:13.939Z,18.03
2018-09-03T23:09:42.878Z,17.95
2018-09-03T23:12:11.609Z,17.98
2018-09-03T23:14:40.291Z,18.05
2018-09-03T23:17:09.005Z,18.12
2018-09-03T23:19:37.661Z,17.77
2018-09-03T23:22:06.801Z,17.80
2018-09-03T23:24:35.493Z,17.83
2018-09-03T23:27:04.267Z,17.88
2018-09-03T23:29:33.041Z,17.89
2018-09-03T23:32:01.703Z,17.92
2018-09-03T23:34:30.534Z,18.05
2018-09-03T23:36:59.451Z,18.03
2018-09-03T23:39:28.178Z,18.10
2018-09-03T23:41:57.105Z,17.80
2018-09-03T23:44:25.821Z,17.78
2018-09-03T23:46:54.593Z,17.90
2018-09-03T23:49:23.326Z,17.88
2018-09-03T23:51:52.026Z,17.87
2018-09-03T23:54:20.753Z,17.86
2018-09-03T23:56:49.481Z,17.94
2018-09-03T23:59:18.186Z,17.97
